Time;durP1;ratioP1;P1;durP2;ratioP2;P2;SDS_P1;SDS_P2;PMS_P1;PMS_P2;Temp;Humidity;BMP_temperature;BMP_pressure;BME280_temperature;BME280_humidity;BME280_pressure;Samples;Min_cycle;Max_cycle;Signal;HPM_P1;HPM_P2
2022/02/17 00:00:58;;;;;;;11.07;1.90;;;;;;;;;;5042327;28;20208;-68
2022/02/17 00:03:24;;;;;;;14.73;2.05;;;;;;;;;;5054250;28;20185;-69
2022/02/17 00:05:50;;;;;;;15.90;2.78;;;;;;;;;;5041995;28;20583;-68
2022/02/17 00:08:16;;;;;;;13.57;2.00;;;;;;;;;;5044150;28;20228;-69
2022/02/17 00:10:41;;;;;;;13.35;2.45;;;;;;;;;;5044585;28;20684;-68
2022/02/17 00:13:07;;;;;;;12.10;1.98;;;;;;;;;;5046048;28;20185;-69
2022/02/17 00:15:33;;;;;;;15.35;2.33;;;;;;;;;;5042671;28;20247;-70
2022/02/17 00:17:59;;;;;;;17.83;2.50;;;;;;;;;;5042750;28;20601;-69
2022/02/17 00:20:25;;;;;;;12.25;2.05;;;;;;;;;;5038989;28;20182;-69
2022/02/17 00:22:50;;;;;;;7.90;1.40;;;;;;;;;;5047082;28;20476;-70
2022/02/17 00:25:16;;;;;;;7.15;1.38;;;;;;;;;;5041506;28;20636;-70
2022/02/17 00:27:42;;;;;;;4.55;1.13;;;;;;;;;;5045257;28;20208;-69
2022/02/17 00:30:08;;;;;;;8.13;1.08;;;;;;;;;;5041844;28;20193;-71
2022/02/17 00:32:35;;;;;;;12.35;1.73;;;;;;;;;;5044825;28;20649;-70
2022/02/17 00:35:01;;;;;;;5.00;1.10;;;;;;;;;;5045428;28;20195;-70
2022/02/17 00:37:27;;;;;;;7.88;1.25;;;;;;;;;;5041910;28;20181;-69
2022/02/17 00:39:52;;;;;;;4.40;0.57;;;;;;;;;;5038681;28;20181;-69
2022/02/17 00:42:18;;;;;;;7.28;1.25;;;;;;;;;;5045157;28;20166;-70
2022/02/17 00:44:44;;;;;;;4.70;0.80;;;;;;;;;;5044266;28;20712;-68
2022/02/17 00:47:12;;;;;;;4.88;1.15;;;;;;;;;;5042636;28;20208;-70
2022/02/17 00:49:38;;;;;;;5.78;1.02;;;;;;;;;;5036142;28;20208;-70
2022/02/17 00:52:03;;;;;;;6.05;1.08;;;;;;;;;;5041134;28;20197;-69
2022/02/17 00:54:29;;;;;;;8.32;1.70;;;;;;;;;;5050074;28;20190;-69
2022/02/17 00:56:54;;;;;;;4.15;1.00;;;;;;;;;;5038818;28;20590;-68
2022/02/17 00:59:20;;;;;;;10.77;1.30;;;;;;;;;;5043153;28;20200;-68
2022/02/17 01:01:47;;;;;;;9.02;1.10;;;;;;;;;;5041360;28;20193;-68
2022/02/17 01:04:14;;;;;;;8.50;1.30;;;;;;;;;;5053466;28;20853;-68
2022/02/17 01:06:39;;;;;;;9.70;1.67;;;;;;;;;;5044944;28;20255;-69
2022/02/17 01:09:06;;;;;;;15.90;2.10;;;;;;;;;;5042312;28;20644;-69
2022/02/17 01:11:32;;;;;;;8.45;1.70;;;;;;;;;;5043535;28;20272;-69
2022/02/17 01:13:58;;;;;;;12.23;2.15;;;;;;;;;;5043681;28;20737;-68
2022/02/17 01:16:23;;;;;;;12.88;1.85;;;;;;;;;;5042497;28;20182;-69
2022/02/17 01:18:48;;;;;;;10.80;2.20;;;;;;;;;;5046093;28;20243;-69
2022/02/17 01:21:14;;;;;;;14.05;2.30;;;;;;;;;;5042365;28;20169;-68
2022/02/17 01:23:39;;;;;;;20.38;2.72;;;;;;;;;;5033977;28;20550;-68
2022/02/17 01:26:04;;;;;;;12.05;2.25;;;;;;;;;;5042163;28;20271;-68
2022/02/17 01:28:30;;;;;;;13.00;2.08;;;;;;;;;;5038181;28;20189;-69
2022/02/17 01:30:55;;;;;;;12.02;1.88;;;;;;;;;;5042378;28;20566;-68
2022/02/17 01:33:21;;;;;;;11.38;1.52;;;;;;;;;;5042506;28;20236;-68
2022/02/17 01:35:46;;;;;;;8.80;1.50;;;;;;;;;;5038364;28;20276;-68
2022/02/17 01:38:11;;;;;;;9.70;1.80;;;;;;;;;;5042511;28;20192;-68
2022/02/17 01:40:37;;;;;;;13.27;2.45;;;;;;;;;;5041504;28;20268;-69
2022/02/17 01:43:02;;;;;;;10.40;1.90;;;;;;;;;;5044721;28;20652;-68
2022/02/17 01:45:27;;;;;;;16.02;2.00;;;;;;;;;;5042136;28;20209;-68
2022/02/17 01:47:53;;;;;;;9.00;1.80;;;;;;;;;;5046905;28;20609;-68
2022/02/17 01:50:18;;;;;;;12.80;2.20;;;;;;;;;;5041644;28;20647;-68
2022/02/17 01:52:45;;;;;;;10.85;2.08;;;;;;;;;;5043157;28;20637;-68
2022/02/17 01:55:11;;;;;;;12.55;1.83;;;;;;;;;;5042272;28;20272;-68
2022/02/17 01:57:38;;;;;;;14.15;2.08;;;;;;;;;;5045153;28;20260;-68
2022/02/17 02:00:05;;;;;;;11.95;2.15;;;;;;;;;;5041003;28;20268;-68
2022/02/17 02:02:30;;;;;;;11.57;2.05;;;;;;;;;;5048258;28;20177;-68
2022/02/17 02:04:56;;;;;;;19.55;2.40;;;;;;;;;;5044880;28;20563;-67
2022/02/17 02:07:21;;;;;;;10.98;2.08;;;;;;;;;;5038900;28;20234;-68
2022/02/17 02:09:46;;;;;;;9.73;1.85;;;;;;;;;;5043422;28;20458;-67
2022/02/17 02:12:12;;;;;;;13.13;2.15;;;;;;;;;;5046994;28;20173;-67
2022/02/17 02:14:48;;;;;;;11.40;2.13;;;;;;;;;;5044558;28;20688;-68
2022/02/17 02:17:14;;;;;;;14.55;1.90;;;;;;;;;;5046648;28;20185;-68
2022/02/17 02:19:39;;;;;;;13.90;2.00;;;;;;;;;;5045664;28;20181;-68
2022/02/17 02:22:04;;;;;;;14.90;2.00;;;;;;;;;;5045411;28;20199;-67
2022/02/17 02:24:31;;;;;;;16.45;2.33;;;;;;;;;;5044541;28;20201;-67
2022/02/17 02:26:57;;;;;;;10.02;1.80;;;;;;;;;;5045681;28;20212;-67
2022/02/17 02:29:22;;;;;;;15.48;2.60;;;;;;;;;;5045892;28;20184;-67
2022/02/17 02:31:47;;;;;;;14.88;2.20;;;;;;;;;;5047587;28;20516;-67
2022/02/17 02:34:13;;;;;;;15.13;2.40;;;;;;;;;;5045708;28;20641;-68
2022/02/17 02:36:38;;;;;;;17.48;2.70;;;;;;;;;;5045617;28;20184;-66
2022/02/17 02:39:03;;;;;;;17.05;2.78;;;;;;;;;;5043324;28;20181;-67
2022/02/17 02:41:29;;;;;;;15.93;3.72;;;;;;;;;;5043956;28;20185;-67
2022/02/17 02:43:58;;;;;;;19.02;3.20;;;;;;;;;;5047538;28;20213;-68
2022/02/17 02:46:23;;;;;;;17.80;3.22;;;;;;;;;;5045068;28;20590;-67
2022/02/17 02:48:48;;;;;;;16.08;2.97;;;;;;;;;;5050059;28;20197;-67
2022/02/17 02:51:14;;;;;;;13.68;2.70;;;;;;;;;;5045539;28;20432;-68
2022/02/17 02:53:40;;;;;;;10.55;2.03;;;;;;;;;;5035141;28;20189;-68
2022/02/17 02:56:05;;;;;;;14.98;2.40;;;;;;;;;;5042581;28;20190;-69
2022/02/17 02:58:31;;;;;;;14.15;2.35;;;;;;;;;;5045342;28;20184;-68
2022/02/17 03:00:56;;;;;;;17.10;2.90;;;;;;;;;;5044916;28;20225;-69
2022/02/17 03:03:21;;;;;;;14.45;2.38;;;;;;;;;;5046118;28;20200;-70
2022/02/17 03:05:47;;;;;;;14.77;2.92;;;;;;;;;;5043119;28;20240;-68
2022/02/17 03:08:12;;;;;;;14.77;2.75;;;;;;;;;;5047108;28;20663;-67
2022/02/17 03:10:38;;;;;;;15.23;2.55;;;;;;;;;;5046455;28;20681;-68
2022/02/17 03:13:03;;;;;;;12.55;3.03;;;;;;;;;;5044662;28;20623;-67
2022/02/17 03:15:29;;;;;;;13.55;2.80;;;;;;;;;;5043294;28;20181;-68
2022/02/17 03:17:54;;;;;;;15.13;2.40;;;;;;;;;;5044759;28;20186;-69
2022/02/17 03:20:21;;;;;;;16.08;2.72;;;;;;;;;;5043068;28;20603;-68
2022/02/17 03:22:46;;;;;;;11.98;2.20;;;;;;;;;;5045598;28;20296;-68
2022/02/17 03:25:14;;;;;;;16.83;2.35;;;;;;;;;;5042897;28;20338;-68
2022/02/17 03:27:40;;;;;;;14.40;2.30;;;;;;;;;;5042458;28;20201;-68
2022/02/17 03:30:08;;;;;;;16.33;2.03;;;;;;;;;;5043565;28;20560;-68
2022/02/17 03:32:34;;;;;;;20.65;3.17;;;;;;;;;;5041850;28;20190;-68
2022/02/17 03:35:00;;;;;;;16.40;2.25;;;;;;;;;;5045410;28;20470;-70
2022/02/17 03:37:25;;;;;;;14.60;2.80;;;;;;;;;;5045738;28;20622;-69
2022/02/17 03:39:51;;;;;;;11.07;1.60;;;;;;;;;;5043230;28;20214;-67
2022/02/17 03:42:16;;;;;;;15.77;3.17;;;;;;;;;;5041133;28;21011;-68
2022/02/17 03:44:42;;;;;;;13.00;2.30;;;;;;;;;;5043008;28;20234;-68
2022/02/17 03:47:07;;;;;;;10.57;2.30;;;;;;;;;;5043607;28;20302;-68
2022/02/17 03:49:33;;;;;;;15.65;2.72;;;;;;;;;;5043140;28;20199;-70
2022/02/17 03:51:58;;;;;;;16.77;2.28;;;;;;;;;;5041342;28;20193;-69
2022/02/17 03:54:23;;;;;;;15.88;2.60;;;;;;;;;;5042969;28;20201;-69
2022/02/17 03:56:49;;;;;;;15.77;2.20;;;;;;;;;;5051523;28;20182;-69
2022/02/17 03:59:14;;;;;;;15.77;2.80;;;;;;;;;;5038816;28;20611;-70
2022/02/17 04:01:40;;;;;;;16.30;1.88;;;;;;;;;;5044452;28;20180;-70
2022/02/17 04:04:07;;;;;;;13.25;1.90;;;;;;;;;;5042725;28;20185;-68
2022/02/17 04:06:33;;;;;;;14.80;2.00;;;;;;;;;;5044707;28;21721;-67
2022/02/17 04:08:58;;;;;;;14.60;2.38;;;;;;;;;;5040654;28;20219;-68
2022/02/17 04:11:24;;;;;;;12.77;1.50;;;;;;;;;;5047764;28;20520;-70
2022/02/17 04:13:50;;;;;;;11.60;2.15;;;;;;;;;;5042796;28;20193;-70
2022/02/17 04:16:17;;;;;;;10.10;2.25;;;;;;;;;;5047131;28;20183;-69
2022/02/17 04:18:43;;;;;;;15.63;2.80;;;;;;;;;;5043780;28;20691;-68
2022/02/17 04:21:09;;;;;;;9.77;1.80;;;;;;;;;;5046607;28;20185;-68
2022/02/17 04:23:35;;;;;;;14.13;3.17;;;;;;;;;;5042489;28;20194;-70
2022/02/17 04:26:01;;;;;;;16.70;2.47;;;;;;;;;;5044607;28;20762;-68
2022/02/17 04:28:26;;;;;;;12.40;2.42;;;;;;;;;;5041721;28;20209;-69
2022/02/17 04:30:52;;;;;;;14.57;2.65;;;;;;;;;;5043108;28;20258;-69
2022/02/17 04:33:17;;;;;;;9.77;2.13;;;;;;;;;;5035734;28;20208;-67
2022/02/17 04:35:43;;;;;;;13.07;1.88;;;;;;;;;;5037220;28;20597;-68
2022/02/17 04:38:09;;;;;;;16.27;3.00;;;;;;;;;;5042818;28;20208;-68
2022/02/17 04:43:18;;;;;;;11.38;1.83;;;;;;;;;;5041426;28;20196;-70
2022/02/17 04:45:44;;;;;;;13.50;1.67;;;;;;;;;;5039968;28;20664;-68
2022/02/17 04:48:09;;;;;;;17.58;2.95;;;;;;;;;;5042054;28;20615;-68
2022/02/17 04:50:35;;;;;;;19.52;2.63;;;;;;;;;;5051479;28;20226;-67
2022/02/17 04:53:00;;;;;;;13.00;2.40;;;;;;;;;;5044221;28;20645;-68
2022/02/17 04:55:25;;;;;;;12.13;2.00;;;;;;;;;;5041958;28;20186;-68
2022/02/17 04:57:51;;;;;;;15.32;2.10;;;;;;;;;;5045985;28;20276;-67
2022/02/17 05:00:16;;;;;;;9.70;1.80;;;;;;;;;;5043480;28;20839;-68
2022/02/17 05:02:42;;;;;;;16.58;2.35;;;;;;;;;;5041709;28;20236;-70
2022/02/17 05:05:07;;;;;;;16.90;2.92;;;;;;;;;;5050238;28;20200;-68
2022/02/17 05:07:33;;;;;;;22.83;2.95;;;;;;;;;;5043024;28;20229;-69
2022/02/17 05:09:58;;;;;;;19.13;2.55;;;;;;;;;;5035647;28;20637;-68
2022/02/17 05:12:23;;;;;;;18.42;2.60;;;;;;;;;;5040465;28;20198;-68
2022/02/17 05:14:49;;;;;;;13.00;2.25;;;;;;;;;;5039957;28;20211;-69
2022/02/17 05:17:14;;;;;;;10.70;2.00;;;;;;;;;;5040855;28;20203;-68
2022/02/17 05:19:39;;;;;;;18.05;2.88;;;;;;;;;;5045156;28;20169;-68
2022/02/17 05:22:05;;;;;;;20.25;2.55;;;;;;;;;;5040341;28;20185;-68
2022/02/17 05:24:33;;;;;;;15.23;3.13;;;;;;;;;;5036567;28;20524;-67
2022/02/17 05:26:58;;;;;;;11.88;2.50;;;;;;;;;;5035263;28;20559;-67
2022/02/17 05:29:24;;;;;;;19.38;2.40;;;;;;;;;;5032396;28;20177;-68
2022/02/17 05:31:49;;;;;;;19.67;2.50;;;;;;;;;;5043290;28;20546;-68
2022/02/17 05:34:17;;;;;;;13.38;2.53;;;;;;;;;;5040751;28;20652;-68
2022/02/17 05:36:42;;;;;;;21.08;2.95;;;;;;;;;;5041865;28;20259;-69
2022/02/17 05:39:08;;;;;;;14.30;2.08;;;;;;;;;;5038941;28;20272;-69
2022/02/17 05:41:33;;;;;;;18.48;2.22;;;;;;;;;;5045898;28;20264;-69
2022/02/17 05:43:58;;;;;;;10.07;1.98;;;;;;;;;;5043512;28;20509;-68
2022/02/17 05:46:24;;;;;;;17.80;2.92;;;;;;;;;;5046356;28;20201;-69
2022/02/17 05:48:49;;;;;;;19.25;3.35;;;;;;;;;;5040844;28;20288;-68
2022/02/17 05:51:17;;;;;;;14.02;2.80;;;;;;;;;;5041957;28;20660;-69
2022/02/17 05:53:43;;;;;;;15.07;2.70;;;;;;;;;;5041656;28;20197;-69
2022/02/17 05:56:09;;;;;;;21.40;2.83;;;;;;;;;;5044571;28;20184;-69
2022/02/17 05:58:34;;;;;;;15.57;2.50;;;;;;;;;;5045120;28;20633;-69
2022/02/17 06:00:59;;;;;;;14.82;1.80;;;;;;;;;;5045155;28;20181;-69
2022/02/17 06:03:25;;;;;;;12.90;2.58;;;;;;;;;;5043100;28;20645;-69
2022/02/17 06:05:50;;;;;;;19.38;2.38;;;;;;;;;;5046594;28;20216;-69
2022/02/17 06:08:15;;;;;;;15.18;2.30;;;;;;;;;;5043069;28;20233;-69
2022/02/17 06:10:43;;;;;;;20.15;2.67;;;;;;;;;;5045300;28;20663;-69
2022/02/17 06:13:10;;;;;;;19.15;2.35;;;;;;;;;;5042833;28;20205;-69
2022/02/17 06:15:36;;;;;;;15.23;1.92;;;;;;;;;;5057917;28;20184;-68
2022/02/17 06:18:02;;;;;;;13.35;2.28;;;;;;;;;;5040791;28;20855;-68
2022/02/17 06:20:27;;;;;;;12.10;1.67;;;;;;;;;;5048688;28;20243;-68
2022/02/17 06:22:53;;;;;;;13.02;1.73;;;;;;;;;;5041013;28;20643;-68
2022/02/17 06:25:19;;;;;;;5.50;1.40;;;;;;;;;;5042502;28;20209;-68
2022/02/17 06:27:45;;;;;;;11.15;1.67;;;;;;;;;;5046225;28;20232;-68
2022/02/17 06:30:11;;;;;;;11.25;1.90;;;;;;;;;;5046396;28;20177;-68
2022/02/17 06:32:44;;;;;;;12.65;1.77;;;;;;;;;;5044355;28;20209;-68
2022/02/17 06:35:09;;;;;;;9.30;1.27;;;;;;;;;;5045130;28;20185;-69
2022/02/17 06:37:35;;;;;;;8.52;1.42;;;;;;;;;;5054220;28;20272;-68
2022/02/17 06:40:01;;;;;;;12.23;2.10;;;;;;;;;;5042591;28;20185;-68
2022/02/17 06:42:26;;;;;;;10.60;1.83;;;;;;;;;;5038763;28;20193;-68
2022/02/17 06:44:51;;;;;;;11.00;2.25;;;;;;;;;;5045219;28;20185;-69
2022/02/17 06:47:17;;;;;;;14.48;2.08;;;;;;;;;;5049107;28;20277;-68
2022/02/17 06:49:42;;;;;;;14.02;1.60;;;;;;;;;;5043985;28;20185;-69
2022/02/17 06:52:07;;;;;;;11.40;1.73;;;;;;;;;;5049432;28;20668;-68
2022/02/17 06:54:33;;;;;;;13.40;1.58;;;;;;;;;;5044512;28;20189;-69
2022/02/17 06:56:58;;;;;;;11.68;1.58;;;;;;;;;;5044350;28;20181;-69
2022/02/17 06:59:23;;;;;;;7.47;1.48;;;;;;;;;;5046319;28;20652;-69
2022/02/17 07:01:49;;;;;;;9.77;1.90;;;;;;;;;;5044666;28;20221;-69
2022/02/17 07:04:14;;;;;;;13.43;1.73;;;;;;;;;;5048961;28;20189;-69
2022/02/17 07:06:39;;;;;;;16.15;3.40;;;;;;;;;;5048732;28;20693;-69
2022/02/17 07:09:05;;;;;;;11.77;2.08;;;;;;;;;;5044427;28;20195;-70
2022/02/17 07:11:33;;;;;;;14.15;2.00;;;;;;;;;;5042551;28;20190;-69
2022/02/17 07:13:58;;;;;;;11.00;1.95;;;;;;;;;;5038809;28;20264;-68
2022/02/17 07:16:23;;;;;;;13.63;1.45;;;;;;;;;;5044175;28;20322;-70
2022/02/17 07:18:49;;;;;;;13.05;1.60;;;;;;;;;;5039803;28;20204;-68
2022/02/17 07:21:14;;;;;;;10.85;1.42;;;;;;;;;;5042678;28;20509;-69
2022/02/17 07:23:40;;;;;;;9.82;1.60;;;;;;;;;;5043157;28;20177;-68
2022/02/17 07:26:07;;;;;;;10.07;1.40;;;;;;;;;;5047040;28;20213;-70
2022/02/17 07:28:32;;;;;;;10.93;2.05;;;;;;;;;;5047425;28;20589;-69
2022/02/17 07:30:58;;;;;;;12.48;1.55;;;;;;;;;;5044265;28;20201;-68
2022/02/17 07:33:23;;;;;;;9.50;1.67;;;;;;;;;;5051404;28;20186;-69
2022/02/17 07:35:48;;;;;;;13.40;1.57;;;;;;;;;;5045145;28;20189;-69
2022/02/17 07:38:14;;;;;;;13.40;1.88;;;;;;;;;;5052173;28;20190;-69
2022/02/17 07:40:41;;;;;;;11.98;1.75;;;;;;;;;;5043675;28;20518;-68
2022/02/17 07:43:08;;;;;;;9.77;1.27;;;;;;;;;;5044369;28;20189;-69
2022/02/17 07:45:34;;;;;;;10.93;1.65;;;;;;;;;;5043255;28;20730;-69
2022/02/17 07:47:59;;;;;;;11.80;1.17;;;;;;;;;;5041847;28;20197;-69
2022/02/17 07:50:25;;;;;;;9.02;2.28;;;;;;;;;;5041874;28;20276;-68
2022/02/17 07:52:51;;;;;;;10.15;1.60;;;;;;;;;;5043948;28;20251;-68
2022/02/17 07:55:18;;;;;;;7.50;2.10;;;;;;;;;;5042982;28;20973;-69
2022/02/17 07:57:43;;;;;;;13.27;1.48;;;;;;;;;;5046534;28;20197;-68
2022/02/17 08:00:11;;;;;;;13.82;1.92;;;;;;;;;;5042397;28;20551;-68
2022/02/17 08:02:37;;;;;;;12.80;2.25;;;;;;;;;;5041653;28;20566;-69
2022/02/17 08:05:02;;;;;;;8.65;1.60;;;;;;;;;;5042774;28;20268;-68
2022/02/17 08:07:30;;;;;;;9.57;1.50;;;;;;;;;;5045517;28;20263;-69
2022/02/17 08:09:55;;;;;;;9.77;1.52;;;;;;;;;;5047510;28;20188;-68
2022/02/17 08:12:20;;;;;;;7.22;1.13;;;;;;;;;;5047442;28;20189;-69
2022/02/17 08:14:46;;;;;;;9.57;1.45;;;;;;;;;;5045498;28;20181;-69
2022/02/17 08:17:11;;;;;;;14.38;1.52;;;;;;;;;;5041752;28;20549;-69
2022/02/17 08:19:37;;;;;;;8.88;1.58;;;;;;;;;;5046634;28;20193;-69
2022/02/17 08:22:03;;;;;;;8.55;1.35;;;;;;;;;;5043406;28;20489;-69
2022/02/17 08:24:29;;;;;;;8.73;1.77;;;;;;;;;;5044747;28;20178;-69
2022/02/17 08:26:57;;;;;;;9.23;1.40;;;;;;;;;;5042829;28;20232;-69
2022/02/17 08:29:23;;;;;;;9.55;1.23;;;;;;;;;;5049375;28;21309;-69
2022/02/17 08:31:49;;;;;;;6.90;1.10;;;;;;;;;;5048635;28;20337;-67
2022/02/17 08:34:18;;;;;;;5.15;0.90;;;;;;;;;;5049075;28;20197;-67
2022/02/17 08:36:44;;;;;;;4.85;0.93;;;;;;;;;;5042897;28;20262;-69
2022/02/17 08:39:09;;;;;;;7.43;1.40;;;;;;;;;;5052337;28;20440;-68
2022/02/17 08:41:36;;;;;;;10.15;1.88;;;;;;;;;;5048282;28;20697;-69
2022/02/17 08:44:03;;;;;;;5.45;1.50;;;;;;;;;;5040907;28;20664;-68
2022/02/17 08:46:28;;;;;;;10.27;1.67;;;;;;;;;;5043485;28;20193;-68
2022/02/17 08:48:54;;;;;;;12.50;1.42;;;;;;;;;;5043783;28;20188;-67
2022/02/17 08:51:22;;;;;;;8.45;1.25;;;;;;;;;;5044246;28;20177;-68
2022/02/17 08:53:48;;;;;;;7.85;1.42;;;;;;;;;;5045215;28;20225;-69
2022/02/17 08:56:13;;;;;;;7.13;1.25;;;;;;;;;;5047525;28;20194;-68
2022/02/17 08:58:39;;;;;;;10.98;2.53;;;;;;;;;;5042214;28;20186;-69
2022/02/17 09:01:04;;;;;;;9.77;1.58;;;;;;;;;;5045294;28;20182;-68
2022/02/17 09:03:30;;;;;;;4.70;0.90;;;;;;;;;;5041512;28;20189;-68
2022/02/17 09:05:55;;;;;;;10.18;1.13;;;;;;;;;;5044542;28;20653;-68
2022/02/17 09:08:21;;;;;;;10.80;1.15;;;;;;;;;;5041994;28;20225;-69
2022/02/17 09:10:46;;;;;;;7.85;1.58;;;;;;;;;;5050901;28;20225;-69
2022/02/17 09:13:12;;;;;;;9.25;1.17;;;;;;;;;;5040111;28;20371;-68
2022/02/17 09:15:38;;;;;;;14.30;1.58;;;;;;;;;;5046665;28;20188;-68
2022/02/17 09:18:04;;;;;;;6.72;0.82;;;;;;;;;;5040572;28;20192;-68
2022/02/17 09:20:30;;;;;;;8.77;1.20;;;;;;;;;;5034613;28;20194;-68
2022/02/17 09:22:55;;;;;;;9.90;1.20;;;;;;;;;;5043944;28;20188;-69
2022/02/17 09:25:21;;;;;;;8.25;1.80;;;;;;;;;;5045946;28;20430;-68
2022/02/17 09:27:46;;;;;;;8.07;1.55;;;;;;;;;;5043232;28;20181;-68
2022/02/17 09:30:12;;;;;;;10.13;1.50;;;;;;;;;;5041532;28;20204;-68
2022/02/17 09:32:37;;;;;;;10.80;1.23;;;;;;;;;;5046396;28;20186;-68
2022/02/17 09:35:03;;;;;;;9.55;1.73;;;;;;;;;;5042905;28;20220;-69
2022/02/17 09:37:29;;;;;;;10.25;1.38;;;;;;;;;;5047208;28;20184;-68
2022/02/17 09:39:55;;;;;;;13.05;2.00;;;;;;;;;;5041686;28;20592;-69
2022/02/17 09:42:20;;;;;;;14.88;2.28;;;;;;;;;;5047225;28;20185;-69
2022/02/17 09:44:46;;;;;;;8.35;1.50;;;;;;;;;;5040005;28;20337;-69
2022/02/17 09:47:12;;;;;;;8.57;1.27;;;;;;;;;;5044645;28;20201;-69
2022/02/17 09:49:42;;;;;;;6.47;1.40;;;;;;;;;;5042564;28;20653;-68
2022/02/17 09:52:09;;;;;;;12.98;1.75;;;;;;;;;;5053534;28;20661;-68
2022/02/17 09:54:35;;;;;;;7.25;1.35;;;;;;;;;;5042857;28;20665;-69
2022/02/17 09:57:01;;;;;;;6.85;1.42;;;;;;;;;;5052708;28;20188;-69
2022/02/17 09:59:26;;;;;;;11.68;1.25;;;;;;;;;;5039202;28;20190;-69
2022/02/17 10:01:56;;;;;;;15.60;2.20;;;;;;;;;;5043780;28;20693;-69
2022/02/17 10:04:22;;;;;;;10.97;1.40;;;;;;;;;;5037980;28;20641;-68
2022/02/17 10:06:48;;;;;;;12.60;1.65;;;;;;;;;;5042742;28;20696;-69
2022/02/17 10:09:15;;;;;;;7.25;1.33;;;;;;;;;;5047419;28;20193;-68
2022/02/17 10:11:41;;;;;;;7.22;1.20;;;;;;;;;;5044063;28;20291;-69
2022/02/17 10:14:12;;;;;;;10.30;1.35;;;;;;;;;;5054810;28;20247;-69
2022/02/17 10:16:54;;;;;;;6.93;1.80;;;;;;;;;;5043152;28;20174;-69
2022/02/17 10:19:22;;;;;;;7.10;1.38;;;;;;;;;;5052330;28;20185;-69
2022/02/17 10:21:48;;;;;;;10.95;1.60;;;;;;;;;;5046469;28;20715;-68
2022/02/17 10:24:35;;;;;;;7.95;1.27;;;;;;;;;;5059191;28;20193;-69
2022/02/17 10:27:05;;;;;;;7.63;1.48;;;;;;;;;;5047152;28;20209;-68
2022/02/17 10:29:34;;;;;;;14.25;1.67;;;;;;;;;;5049955;28;20193;-69
2022/02/17 10:32:11;;;;;;;5.57;1.05;;;;;;;;;;5047434;28;20209;-68
2022/02/17 10:34:36;;;;;;;10.13;1.55;;;;;;;;;;5046609;28;20181;-68
2022/02/17 10:37:02;;;;;;;11.75;1.50;;;;;;;;;;5049482;28;20192;-68
2022/02/17 10:39:33;;;;;;;9.93;1.42;;;;;;;;;;5047148;28;20212;-68
2022/02/17 10:42:04;;;;;;;9.38;1.00;;;;;;;;;;5047876;28;20193;-67
2022/02/17 10:44:30;;;;;;;9.60;1.20;;;;;;;;;;5043161;28;20189;-67
2022/02/17 10:46:56;;;;;;;8.73;0.82;;;;;;;;;;5046739;28;20217;-68
2022/02/17 10:49:22;;;;;;;6.40;1.27;;;;;;;;;;5041464;28;20185;-68
2022/02/17 10:51:50;;;;;;;7.05;1.15;;;;;;;;;;5045667;28;20197;-68
2022/02/17 10:54:21;;;;;;;8.45;1.33;;;;;;;;;;5040026;28;20178;-68
2022/02/17 10:56:51;;;;;;;14.60;1.52;;;;;;;;;;5045220;28;20189;-67
2022/02/17 11:02:02;;;;;;;13.43;1.48;;;;;;;;;;5045216;28;20271;-67
2022/02/17 11:04:28;;;;;;;8.73;1.20;;;;;;;;;;5046035;28;20215;-68
2022/02/17 11:06:53;;;;;;;9.60;1.65;;;;;;;;;;5043670;28;20228;-69
2022/02/17 11:09:19;;;;;;;11.02;1.38;;;;;;;;;;5051341;28;20256;-69
2022/02/17 11:11:51;;;;;;;7.93;1.60;;;;;;;;;;5045932;28;20205;-69
2022/02/17 11:14:38;;;;;;;4.72;1.10;;;;;;;;;;5046384;28;20276;-69
2022/02/17 11:17:05;;;;;;;10.25;1.27;;;;;;;;;;5043218;28;20650;-68
2022/02/17 11:19:32;;;;;;;11.25;1.10;;;;;;;;;;5047437;28;20269;-68
2022/02/17 11:21:58;;;;;;;8.27;1.17;;;;;;;;;;5043055;28;20284;-69
2022/02/17 11:24:23;;;;;;;6.35;1.70;;;;;;;;;;5046916;28;20280;-69
2022/02/17 11:27:09;;;;;;;11.02;1.23;;;;;;;;;;5044518;28;20197;-68
2022/02/17 11:29:36;;;;;;;7.38;1.63;;;;;;;;;;5044311;28;20296;-69
2022/02/17 11:32:06;;;;;;;9.05;1.17;;;;;;;;;;5046307;28;20290;-69
2022/02/17 11:34:35;;;;;;;7.80;0.98;;;;;;;;;;5044803;28;20445;-69
2022/02/17 11:37:25;;;;;;;13.48;1.08;;;;;;;;;;5049341;28;20247;-68
2022/02/17 11:40:02;;;;;;;10.20;1.20;;;;;;;;;;5040428;28;20194;-68
2022/02/17 11:42:32;;;;;;;11.48;1.33;;;;;;;;;;5040862;28;20284;-69
2022/02/17 11:45:22;;;;;;;8.98;1.50;;;;;;;;;;5039851;28;20220;-69
2022/02/17 11:48:04;;;;;;;6.25;1.58;;;;;;;;;;5039681;28;20206;-68
2022/02/17 11:50:37;;;;;;;4.50;1.10;;;;;;;;;;5040782;28;20170;-68
2022/02/17 11:53:25;;;;;;;11.93;1.25;;;;;;;;;;5044146;28;20196;-68
2022/02/17 11:55:52;;;;;;;7.93;1.13;;;;;;;;;;5048522;28;20242;-68
2022/02/17 11:58:54;;;;;;;5.40;0.95;;;;;;;;;;5044912;28;20288;-68
2022/02/17 12:01:25;;;;;;;4.38;1.20;;;;;;;;;;5048009;28;20651;-67
2022/02/17 12:04:04;;;;;;;9.68;1.48;;;;;;;;;;5050842;28;20195;-68
2022/02/17 12:06:46;;;;;;;6.03;1.02;;;;;;;;;;5050168;28;20288;-68
2022/02/17 12:09:38;;;;;;;8.48;1.10;;;;;;;;;;5052171;28;20188;-67
2022/02/17 12:12:09;;;;;;;10.57;1.45;;;;;;;;;;5041926;28;20202;-68
2022/02/17 12:14:37;;;;;;;9.90;1.27;;;;;;;;;;5049787;28;20180;-67
2022/02/17 12:17:04;;;;;;;5.78;1.00;;;;;;;;;;5039045;28;20182;-68
2022/02/17 12:19:33;;;;;;;10.93;1.30;;;;;;;;;;5061535;28;20501;-68
2022/02/17 12:22:05;;;;;;;9.27;1.58;;;;;;;;;;5042806;28;20217;-67
2022/02/17 12:24:30;;;;;;;5.85;0.90;;;;;;;;;;5042448;28;20221;-68
2022/02/17 12:26:57;;;;;;;5.18;1.08;;;;;;;;;;5043917;28;20200;-68
2022/02/17 12:29:36;;;;;;;9.52;1.20;;;;;;;;;;5048999;28;20193;-68
2022/02/17 12:32:04;;;;;;;12.10;1.08;;;;;;;;;;5044306;28;20347;-69
2022/02/17 12:34:29;;;;;;;10.30;1.70;;;;;;;;;;5044228;28;20213;-67
2022/02/17 12:36:55;;;;;;;10.57;2.08;;;;;;;;;;5047426;28;20220;-68
2022/02/17 12:39:25;;;;;;;14.38;1.52;;;;;;;;;;5048880;28;20291;-68
2022/02/17 12:42:03;;;;;;;8.32;1.00;;;;;;;;;;5041433;28;20637;-67
2022/02/17 12:44:35;;;;;;;7.63;1.55;;;;;;;;;;5039493;28;20626;-68
2022/02/17 12:47:02;;;;;;;8.27;1.15;;;;;;;;;;5043321;28;20221;-67
2022/02/17 12:49:32;;;;;;;3.58;0.88;;;;;;;;;;5043364;28;20205;-68
2022/02/17 12:52:08;;;;;;;8.98;1.48;;;;;;;;;;5046601;28;20303;-67
2022/02/17 12:54:38;;;;;;;9.52;1.33;;;;;;;;;;5042356;28;20568;-67
2022/02/17 12:57:09;;;;;;;8.70;1.20;;;;;;;;;;5043351;28;20204;-67
2022/02/17 12:59:34;;;;;;;10.38;1.05;;;;;;;;;;5043455;28;20251;-67
2022/02/17 13:02:00;;;;;;;12.10;1.35;;;;;;;;;;5044119;28;20191;-67
2022/02/17 13:04:26;;;;;;;4.03;0.82;;;;;;;;;;5042091;28;20227;-68
2022/02/17 13:06:55;;;;;;;8.30;1.70;;;;;;;;;;5042567;28;20237;-68
2022/02/17 13:09:23;;;;;;;4.38;0.85;;;;;;;;;;5042454;28;20224;-68
2022/02/17 13:11:55;;;;;;;3.83;0.75;;;;;;;;;;5044129;28;20189;-67
2022/02/17 13:14:32;;;;;;;3.35;0.80;;;;;;;;;;5050187;28;20550;-67
2022/02/17 13:17:06;;;;;;;5.25;0.88;;;;;;;;;;5039236;28;20188;-66
2022/02/17 13:19:46;;;;;;;3.90;0.63;;;;;;;;;;5036511;28;20554;-67
2022/02/17 13:22:17;;;;;;;5.28;0.85;;;;;;;;;;5041405;28;20263;-67
2022/02/17 13:24:51;;;;;;;5.88;1.10;;;;;;;;;;5049731;28;20193;-67
2022/02/17 13:27:17;;;;;;;7.60;0.77;;;;;;;;;;5041011;28;20202;-67
2022/02/17 13:30:10;;;;;;;8.27;0.98;;;;;;;;;;5050983;28;20191;-67
2022/02/17 13:32:40;;;;;;;7.45;0.90;;;;;;;;;;5044007;28;20208;-68
2022/02/17 13:35:06;;;;;;;7.95;1.00;;;;;;;;;;5043261;28;20380;-67
2022/02/17 13:37:39;;;;;;;6.03;1.42;;;;;;;;;;5050533;28;20260;-67
2022/02/17 13:40:05;;;;;;;8.82;1.95;;;;;;;;;;5042764;28;20205;-68
2022/02/17 13:42:30;;;;;;;7.70;1.15;;;;;;;;;;5042754;28;20201;-67
2022/02/17 13:44:57;;;;;;;10.25;1.20;;;;;;;;;;5047156;28;20192;-68
2022/02/17 13:47:35;;;;;;;7.93;1.38;;;;;;;;;;5054065;28;20201;-67
2022/02/17 13:50:02;;;;;;;6.75;1.05;;;;;;;;;;5046232;28;20172;-68
2022/02/17 13:52:30;;;;;;;5.70;0.90;;;;;;;;;;5046099;28;20993;-68
2022/02/17 13:55:00;;;;;;;4.47;0.98;;;;;;;;;;5047713;28;20173;-67
2022/02/17 13:57:27;;;;;;;3.92;0.68;;;;;;;;;;5047657;28;20499;-69
2022/02/17 14:00:03;;;;;;;8.77;1.08;;;;;;;;;;5051909;28;20207;-67
2022/02/17 14:02:30;;;;;;;5.50;1.38;;;;;;;;;;5048388;28;20556;-68
2022/02/17 14:05:08;;;;;;;8.90;0.98;;;;;;;;;;5055316;28;20330;-67
2022/02/17 14:07:36;;;;;;;7.18;1.27;;;;;;;;;;5049009;28;20229;-67
2022/02/17 14:10:07;;;;;;;7.45;0.88;;;;;;;;;;5058735;28;20271;-67
2022/02/17 14:12:33;;;;;;;7.60;1.13;;;;;;;;;;5043131;28;20197;-67
2022/02/17 14:15:02;;;;;;;10.45;1.20;;;;;;;;;;5059342;28;20184;-67
2022/02/17 14:17:28;;;;;;;4.00;0.80;;;;;;;;;;5044788;28;20196;-67
2022/02/17 14:19:53;;;;;;;7.70;2.00;;;;;;;;;;5054015;28;20296;-67
2022/02/17 14:22:19;;;;;;;7.13;1.10;;;;;;;;;;5042451;28;20201;-67
2022/02/17 14:24:44;;;;;;;6.60;1.17;;;;;;;;;;5055694;28;20230;-67
2022/02/17 14:27:09;;;;;;;9.40;1.00;;;;;;;;;;5042213;28;20204;-67
2022/02/17 14:29:35;;;;;;;7.82;1.05;;;;;;;;;;5051943;28;20184;-67
2022/02/17 14:32:03;;;;;;;4.95;0.90;;;;;;;;;;5044784;28;20316;-66
2022/02/17 14:34:29;;;;;;;9.02;1.13;;;;;;;;;;5045564;28;20193;-67
2022/02/17 14:36:54;;;;;;;9.02;1.27;;;;;;;;;;5048198;28;20509;-67
2022/02/17 14:39:21;;;;;;;6.50;0.85;;;;;;;;;;5051349;28;20201;-67
2022/02/17 14:41:47;;;;;;;4.30;0.93;;;;;;;;;;5044935;28;20213;-67